PORT of KEA

Страна: Greece Страна: Greece [GR]
Широта / Долгота: 37.664015° / 24.3201° Показать на карте
Местное время:  [UTC +3]
UN/LOCODE: GRKEA
Ожидаемые прибытия: 5

Судов в порту


Записей не найдено

Последние прибытия и отбытия


Имя судна
Прибытие (UTC)
Прибытие (LT)
Отправление (UTC)
Отправление (LT)
Vessel Type: Пассажирские суда  MARMARI EXPRESS 2014-08-22 18:36:00 2014-08-22 21:36:00 2014-08-23 03:37:00 2014-08-23 06:37:00
Vessel Type: Пассажирские суда  HARMONY V 2014-08-22 17:49:00 2014-08-22 20:49:00 2014-08-22 22:57:00 2014-08-23 01:57:00
Vessel Type: Пассажирские суда  MARMARI EXPRESS 2014-08-22 14:32:00 2014-08-22 17:32:00 2014-08-22 15:35:00 2014-08-22 18:35:00
Vessel Type: Яхты и другие  MIMOSA 2014-08-20 19:09:00 2014-08-20 22:09:00 2014-08-22 15:08:00 2014-08-22 18:08:00
Vessel Type: Танкеры  EKO 1 2014-08-22 11:49:00 2014-08-22 14:49:00 2014-08-22 14:48:00 2014-08-22 17:48:00
Vessel Type: Пассажирские суда  MACEDON 2014-08-22 06:35:00 2014-08-22 09:35:00 2014-08-22 11:37:00 2014-08-22 14:37:00
Vessel Type: Яхты и другие  HAGAZUSSA III 2014-08-19 16:38:00 2014-08-19 19:38:00 2014-08-22 06:58:00 2014-08-22 09:58:00
Vessel Type: Пассажирские суда  AQUA JEWEL 2014-08-22 06:00:00 2014-08-22 09:00:00 2014-08-22 06:13:00 2014-08-22 09:13:00
Vessel Type: Пассажирские суда  MACEDON 2014-08-21 18:05:00 2014-08-21 21:05:00 2014-08-22 03:43:00 2014-08-22 06:43:00
Vessel Type: Пассажирские суда  AQUA JEWEL 2014-08-21 21:22:00 2014-08-22 00:22:00 2014-08-21 21:37:00 2014-08-22 00:37:00

Ожидаемые прибытия


Имя судна
Scheduled Arrival (UTC)
Запланированное прибытие (местное время)
Ожидаемое прибытие (ОП) (UTC)
Ожидаемое прибытие (местное время)
Vessel Type: Пассажирские суда  MARMARI EXPRESS 2014-08-22 14:30:00 2014-08-22 17:30:00 2014-08-22 14:29:00 2014-08-22 17:29:00
Vessel Type: Пассажирские суда  MARMARI EXPRESS 2014-08-22 18:30:00 2014-08-22 21:30:00 2014-08-22 20:30:00 2014-08-22 23:30:00
Vessel Type: Пассажирские суда  HARMONY V 2014-08-22 20:30:00 2014-08-22 23:30:00 2014-08-23 03:13:00 2014-08-23 06:13:00
Vessel Type: Пассажирские суда  MACEDON 2014-08-23 06:30:00 2014-08-23 09:30:00
Vessel Type: Пассажирские суда  MACEDON 2014-08-23 10:30:00 2014-08-23 13:30:00

Wind Forecast


    
Время (UTC)
Скорость
Direction
Temperature
2014-08-23 06:00:00 8 knots 357° 26°C
2014-08-23 09:00:00 4 knots 350° 28°C
2014-08-23 12:00:00 4 knots 189° 29°C
2014-08-23 15:00:00 4 knots 210° 29°C
2014-08-23 18:00:00 4 knots 220° 28°C
2014-08-23 21:00:00 5 knots 281° 27°C
2014-08-24 00:00:00 10 knots 293° 26°C
2014-08-24 03:00:00 7 knots 356° 26°C
2014-08-24 06:00:00 8 knots 337° 26°C
2014-08-24 09:00:00 4 knots 336° 28°C
2014-08-24 12:00:00 6 knots 257° 29°C
2014-08-24 15:00:00 9 knots 222° 29°C
2014-08-24 18:00:00 8 knots 225° 27°C
2014-08-24 21:00:00 10 knots 274° 27°C
2014-08-25 00:00:00 14 knots 306° 27°C
2014-08-25 03:00:00 13 knots 325° 26°C
2014-08-25 06:00:00 15 knots 338° 26°C